Time;durP1;ratioP1;P1;durP2;ratioP2;P2;SDS_P1;SDS_P2;PMS_P1;PMS_P2;Temp;Humidity;BMP_temperature;BMP_pressure;BME280_temperature;BME280_humidity;BME280_pressure;Samples;Min_cycle;Max_cycle;Signal;HPM_P1;HPM_P2
2022/11/28 05:01:17;;;;;;;;;;;19.20;99.90;;;;;;5251671;23;19930;-78
2022/11/28 05:03:44;;;;;;;;;;;19.10;99.90;;;;;;4978873;28;20399;-78
2022/11/28 05:06:10;;;;;;;;;;;19.20;99.90;;;;;;4979560;28;19933;-77
2022/11/28 05:08:37;;;;;;;;;;;18.80;99.90;;;;;;4979424;28;19926;-78
2022/11/28 05:11:04;;;;;;;;;;;19.10;99.90;;;;;;4979092;28;19930;-78
2022/11/28 05:13:33;;;;;;;;;;;19.10;99.90;;;;;;4982406;28;19932;-77
2022/11/28 05:16:00;;;;;;;;;;;19.50;99.90;;;;;;4982120;28;19926;-77
2022/11/28 05:18:27;;;;;;;;;;;19.10;99.90;;;;;;4982640;28;19930;-77
2022/11/28 05:20:57;;;;;;;;;;;19.10;99.90;;;;;;4983711;28;19927;-77
2022/11/28 05:23:24;;;;;;;;;;;19.20;99.90;;;;;;4982358;28;20289;-78
2022/11/28 05:25:50;;;;;;;;;;;19.10;99.90;;;;;;4983367;28;19926;-78
2022/11/28 05:28:17;;;;;;;;;;;19.10;99.90;;;;;;4981233;28;19948;-77
2022/11/28 05:30:44;;;;;;;;;;;19.20;99.90;;;;;;4980100;28;19937;-77
2022/11/28 05:33:12;;;;;;;;;;;19.10;99.90;;;;;;4980945;28;19959;-78
2022/11/28 05:35:40;;;;;;;;;;;19.20;99.90;;;;;;4980264;28;19934;-79
2022/11/28 05:38:06;;;;;;;;;;;19.20;99.90;;;;;;4979480;28;19926;-81
2022/11/28 05:40:33;;;;;;;;;;;19.20;99.90;;;;;;4980416;28;20294;-82
2022/11/28 05:43:00;;;;;;;;;;;19.30;99.90;;;;;;4980283;28;19926;-83
2022/11/28 05:45:27;;;;;;;;;;;18.90;99.90;;;;;;4981693;28;19926;-84
2022/11/28 05:47:54;;;;;;;;;;;19.50;99.90;;;;;;4980920;28;19937;-81
2022/11/28 05:50:21;;;;;;;;;;;19.30;99.90;;;;;;4982911;28;20324;-82
2022/11/28 05:52:49;;;;;;;;;;;19.10;99.90;;;;;;4980180;28;19972;-81
2022/11/28 05:55:15;;;;;;;;;;;19.30;99.90;;;;;;4981423;28;20290;-82
2022/11/28 05:57:42;;;;;;;;;;;19.30;99.90;;;;;;4980693;28;20297;-82
2022/11/28 06:00:09;;;;;;;;;;;19.20;99.90;;;;;;4980174;28;19926;-82
2022/11/28 06:02:36;;;;;;;;;;;19.40;99.90;;;;;;4979976;28;19926;-83
2022/11/28 06:05:02;;;;;;;;;;;19.40;99.90;;;;;;4977768;28;20378;-82
2022/11/28 06:07:29;;;;;;;;;;;19.50;99.90;;;;;;4980291;28;19926;-82
2022/11/28 06:09:57;;;;;;;;;;;19.70;99.90;;;;;;4980874;28;19933;-83
2022/11/28 06:12:23;;;;;;;;;;;19.50;99.90;;;;;;4980506;28;19937;-80
2022/11/28 06:14:50;;;;;;;;;;;19.50;99.90;;;;;;4980087;28;19926;-81
2022/11/28 06:17:16;;;;;;;;;;;19.50;99.90;;;;;;4981214;28;19926;-81
2022/11/28 06:19:43;;;;;;;;;;;19.50;99.90;;;;;;4986076;28;20294;-81
2022/11/28 06:22:10;;;;;;;;;;;19.60;99.90;;;;;;4983526;28;19926;-81
2022/11/28 06:24:36;;;;;;;;;;;19.50;99.90;;;;;;4983423;28;19933;-81
2022/11/28 06:27:04;;;;;;;;;;;19.50;99.90;;;;;;4983036;28;19926;-80
2022/11/28 06:29:31;;;;;;;;;;;19.20;99.90;;;;;;4983393;28;19949;-81
2022/11/28 06:31:57;;;;;;;;;;;19.40;99.90;;;;;;4983382;28;19927;-81
2022/11/28 06:34:24;;;;;;;;;;;19.40;99.90;;;;;;4982595;28;19945;-81
2022/11/28 06:36:50;;;;;;;;;;;19.40;99.90;;;;;;4982861;28;19926;-81
2022/11/28 06:39:17;;;;;;;;;;;19.30;99.90;;;;;;4982950;28;19934;-81
2022/11/28 06:41:44;;;;;;;;;;;19.40;99.90;;;;;;4982127;28;20472;-81
2022/11/28 06:44:13;;;;;;;;;;;19.50;99.90;;;;;;4981674;28;19926;-81
2022/11/28 06:46:40;;;;;;;;;;;19.50;99.90;;;;;;4983318;28;20444;-81
2022/11/28 06:49:07;;;;;;;;;;;19.50;99.90;;;;;;4982332;28;19926;-81
2022/11/28 06:51:33;;;;;;;;;;;19.50;99.90;;;;;;4982284;28;19932;-81
2022/11/28 06:54:00;;;;;;;;;;;19.50;99.90;;;;;;4982752;28;19926;-81
2022/11/28 06:56:27;;;;;;;;;;;19.40;99.90;;;;;;4981640;28;20413;-81
2022/11/28 06:58:54;;;;;;;;;;;19.50;99.90;;;;;;4981563;28;19949;-81
2022/11/28 07:01:23;;;;;;;;;;;19.50;99.90;;;;;;4981348;28;19926;-81
2022/11/28 07:03:50;;;;;;;;;;;19.20;99.90;;;;;;4981553;28;19926;-81
2022/11/28 07:06:18;;;;;;;;;;;19.60;99.90;;;;;;4981634;28;19926;-81
2022/11/28 07:08:45;;;;;;;;;;;19.50;99.90;;;;;;4981665;28;19930;-81
2022/11/28 07:11:12;;;;;;;;;;;19.50;99.90;;;;;;4980859;28;20386;-81
2022/11/28 07:13:39;;;;;;;;;;;19.50;99.90;;;;;;4981544;28;19932;-81
2022/11/28 07:16:06;;;;;;;;;;;19.50;99.90;;;;;;4980336;28;19933;-81
2022/11/28 07:18:35;;;;;;;;;;;19.50;99.90;;;;;;4980675;28;19926;-81
2022/11/28 07:21:01;;;;;;;;;;;19.50;99.90;;;;;;4980745;28;19933;-81
2022/11/28 07:23:28;;;;;;;;;;;19.50;99.90;;;;;;4980930;28;19926;-81
2022/11/28 07:25:58;;;;;;;;;;;19.50;99.90;;;;;;4980618;28;19952;-81
2022/11/28 07:28:25;;;;;;;;;;;19.50;99.90;;;;;;4980528;28;20024;-81
2022/11/28 07:30:57;;;;;;;;;;;19.50;99.90;;;;;;4981558;28;19926;-81
2022/11/28 07:33:24;;;;;;;;;;;19.40;99.90;;;;;;4980945;28;19926;-81
2022/11/28 07:35:52;;;;;;;;;;;19.50;99.90;;;;;;4977927;28;19933;-81
2022/11/28 07:38:18;;;;;;;;;;;19.50;99.90;;;;;;4977282;28;19941;-81
2022/11/28 07:40:45;;;;;;;;;;;19.50;99.90;;;;;;4977566;28;19930;-81
2022/11/28 07:43:11;;;;;;;;;;;19.50;99.90;;;;;;4977487;28;19933;-81
2022/11/28 07:45:38;;;;;;;;;;;19.60;99.90;;;;;;4977411;28;19926;-81
2022/11/28 07:48:05;;;;;;;;;;;19.50;99.90;;;;;;4977083;28;20390;-81
2022/11/28 07:50:32;;;;;;;;;;;19.60;99.90;;;;;;4977916;28;19926;-81
2022/11/28 07:53:00;;;;;;;;;;;19.50;99.90;;;;;;4977550;28;19932;-81
2022/11/28 07:55:26;;;;;;;;;;;19.60;99.90;;;;;;4977163;28;19926;-81
2022/11/28 07:57:53;;;;;;;;;;;19.50;99.90;;;;;;4977246;28;19926;-81
2022/11/28 08:00:20;;;;;;;;;;;19.50;99.90;;;;;;4977324;28;20002;-81
2022/11/28 08:02:47;;;;;;;;;;;19.60;99.90;;;;;;4977166;28;19926;-81
2022/11/28 08:05:13;;;;;;;;;;;19.60;99.90;;;;;;4978145;28;19930;-81
2022/11/28 08:07:40;;;;;;;;;;;19.60;99.90;;;;;;4981074;28;20328;-81
2022/11/28 08:10:08;;;;;;;;;;;19.60;99.90;;;;;;4981447;28;19926;-81
2022/11/28 08:12:35;;;;;;;;;;;19.60;99.90;;;;;;4980295;28;19930;-81
2022/11/28 08:15:02;;;;;;;;;;;19.60;99.90;;;;;;4979877;28;20394;-81
2022/11/28 08:17:28;;;;;;;;;;;19.60;99.90;;;;;;4980534;28;19949;-81
2022/11/28 08:19:55;;;;;;;;;;;19.60;99.90;;;;;;4979916;28;20025;-81
2022/11/28 08:22:21;;;;;;;;;;;19.60;99.90;;;;;;4980776;28;20294;-81
2022/11/28 08:24:48;;;;;;;;;;;19.60;99.90;;;;;;4980638;28;19926;-81
2022/11/28 08:27:16;;;;;;;;;;;19.60;99.90;;;;;;4979516;28;20318;-81
2022/11/28 08:29:43;;;;;;;;;;;19.60;99.90;;;;;;4980071;28;19926;-81
2022/11/28 08:32:09;;;;;;;;;;;19.60;99.90;;;;;;4979438;28;19926;-81
2022/11/28 08:34:36;;;;;;;;;;;19.50;99.90;;;;;;4980030;28;19932;-81
2022/11/28 08:37:02;;;;;;;;;;;19.60;99.90;;;;;;4979974;28;19968;-81
2022/11/28 08:39:29;;;;;;;;;;;19.60;99.90;;;;;;4979704;28;19926;-81
2022/11/28 08:41:57;;;;;;;;;;;19.60;99.90;;;;;;4980289;28;19933;-81
2022/11/28 08:44:26;;;;;;;;;;;19.60;99.90;;;;;;4979197;28;19933;-81
2022/11/28 08:46:53;;;;;;;;;;;19.60;99.90;;;;;;4977304;28;19927;-79
2022/11/28 08:49:19;;;;;;;;;;;19.60;99.90;;;;;;4976006;28;20290;-79
2022/11/28 08:51:46;;;;;;;;;;;19.70;99.90;;;;;;4976232;28;19933;-79
2022/11/28 08:54:12;;;;;;;;;;;19.60;99.90;;;;;;4976138;28;19930;-79
2022/11/28 08:56:39;;;;;;;;;;;19.60;99.90;;;;;;4976247;28;20290;-79
2022/11/28 08:59:06;;;;;;;;;;;19.60;99.90;;;;;;4976815;28;20057;-79
2022/11/28 09:01:34;;;;;;;;;;;19.60;99.90;;;;;;4976098;28;19926;-79
2022/11/28 09:04:01;;;;;;;;;;;19.60;99.90;;;;;;4975494;28;19933;-79
2022/11/28 09:06:27;;;;;;;;;;;19.60;99.90;;;;;;4976092;28;19933;-79
2022/11/28 09:08:54;;;;;;;;;;;19.60;99.90;;;;;;4975646;28;19926;-79
2022/11/28 09:11:21;;;;;;;;;;;19.60;99.90;;;;;;4975980;28;19933;-79
2022/11/28 09:13:48;;;;;;;;;;;19.60;99.90;;;;;;4976314;28;19927;-79
2022/11/28 09:16:14;;;;;;;;;;;19.70;99.90;;;;;;4977508;28;20002;-79
2022/11/28 09:18:42;;;;;;;;;;;19.70;99.90;;;;;;4976088;28;19926;-79
2022/11/28 09:21:10;;;;;;;;;;;19.70;99.90;;;;;;4975985;28;19926;-79
2022/11/28 09:23:37;;;;;;;;;;;19.70;99.90;;;;;;4976247;28;19927;-78
2022/11/28 09:26:07;;;;;;;;;;;19.70;99.90;;;;;;4975884;28;19926;-79
2022/11/28 09:28:34;;;;;;;;;;;19.60;99.90;;;;;;4976035;28;20386;-78
2022/11/28 09:31:01;;;;;;;;;;;19.60;99.90;;;;;;4974632;28;20301;-79
2022/11/28 09:33:28;;;;;;;;;;;19.60;99.90;;;;;;4974901;28;19930;-79
2022/11/28 09:35:57;;;;;;;;;;;19.60;99.90;;;;;;4975907;28;19933;-78
2022/11/28 09:38:23;;;;;;;;;;;19.50;99.90;;;;;;4975664;28;19926;-78
2022/11/28 09:40:51;;;;;;;;;;;19.50;99.90;;;;;;4978496;28;19926;-78
2022/11/28 09:43:20;;;;;;;;;;;19.40;99.90;;;;;;4978431;28;20286;-78
2022/11/28 09:45:49;;;;;;;;;;;19.50;99.90;;;;;;4978323;28;19930;-78
2022/11/28 09:48:22;;;;;;;;;;;19.50;99.90;;;;;;4978324;28;19933;-78
2022/11/28 09:50:51;;;;;;;;;;;19.30;99.90;;;;;;4977924;28;20378;-78
2022/11/28 09:53:23;;;;;;;;;;;19.60;99.90;;;;;;4978199;28;19926;-78
2022/11/28 09:55:52;;;;;;;;;;;19.60;99.90;;;;;;4978175;28;19949;-78
2022/11/28 09:58:24;;;;;;;;;;;19.50;99.90;;;;;;4978098;28;19927;-78
2022/11/28 10:00:53;;;;;;;;;;;19.50;99.90;;;;;;4977663;28;20374;-78
2022/11/28 10:03:30;;;;;;;;;;;19.60;99.90;;;;;;4977817;28;19926;-76
2022/11/28 10:06:02;;;;;;;;;;;19.60;99.90;;;;;;4978903;28;20334;-76
2022/11/28 10:08:36;;;;;;;;;;;19.60;99.90;;;;;;4977962;28;19926;-76
2022/11/28 10:11:04;;;;;;;;;;;19.60;99.90;;;;;;4977870;28;19926;-77
2022/11/28 10:13:35;;;;;;;;;;;19.60;99.90;;;;;;4977905;28;19933;-77
2022/11/28 10:16:06;;;;;;;;;;;19.60;99.90;;;;;;4977804;28;19926;-77
2022/11/28 10:18:38;;;;;;;;;;;19.60;99.90;;;;;;4977462;28;20401;-77
2022/11/28 10:21:09;;;;;;;;;;;19.60;99.90;;;;;;4977600;28;19926;-77
2022/11/28 10:23:39;;;;;;;;;;;19.60;99.90;;;;;;4977733;28;19930;-77
2022/11/28 10:26:07;;;;;;;;;;;19.60;99.90;;;;;;4977639;28;19926;-77
2022/11/28 10:28:35;;;;;;;;;;;19.70;99.90;;;;;;4977628;28;20271;-77
2022/11/28 10:31:05;;;;;;;;;;;19.70;99.90;;;;;;4977183;28;20313;-78
2022/11/28 10:33:36;;;;;;;;;;;19.60;99.90;;;;;;4977647;28;19926;-78
2022/11/28 10:36:03;;;;;;;;;;;19.70;99.90;;;;;;4977584;28;19926;-78
2022/11/28 10:38:32;;;;;;;;;;;19.70;99.90;;;;;;4977608;28;19926;-78
2022/11/28 10:41:04;;;;;;;;;;;19.60;99.90;;;;;;4977453;28;19933;-78
2022/11/28 10:43:34;;;;;;;;;;;19.70;99.90;;;;;;4977572;28;19926;-78
2022/11/28 10:46:06;;;;;;;;;;;19.70;99.90;;;;;;4977935;28;19926;-78
2022/11/28 10:48:38;;;;;;;;;;;19.60;99.90;;;;;;4977223;28;20329;-78
2022/11/28 10:51:11;;;;;;;;;;;19.70;99.90;;;;;;4977109;28;19926;-80
2022/11/28 10:53:41;;;;;;;;;;;19.70;99.90;;;;;;4978070;28;19926;-78
2022/11/28 10:56:13;;;;;;;;;;;19.60;99.90;;;;;;4978032;28;20400;-79
2022/11/28 10:58:42;;;;;;;;;;;19.70;99.90;;;;;;4978091;28;19926;-79
2022/11/28 11:01:09;;;;;;;;;;;19.70;99.90;;;;;;4977917;28;19949;-79
2022/11/28 11:03:36;;;;;;;;;;;19.70;99.90;;;;;;4977784;28;19926;-79
2022/11/28 11:06:03;;;;;;;;;;;19.60;99.90;;;;;;4977422;28;19926;-79
2022/11/28 11:08:33;;;;;;;;;;;19.70;99.90;;;;;;4977440;28;19926;-79
2022/11/28 11:11:02;;;;;;;;;;;19.70;99.90;;;;;;4977317;28;19933;-79
2022/11/28 11:13:35;;;;;;;;;;;19.70;99.90;;;;;;4977509;28;19934;-79
2022/11/28 11:16:03;;;;;;;;;;;19.90;99.90;;;;;;4978944;28;19926;-80
2022/11/28 11:18:30;;;;;;;;;;;19.60;99.90;;;;;;4978354;28;19932;-80
2022/11/28 11:21:07;;;;;;;;;;;19.60;99.90;;;;;;4978168;28;19930;-80
2022/11/28 11:23:33;;;;;;;;;;;19.60;99.90;;;;;;4978230;28;19926;-80
2022/11/28 11:26:00;;;;;;;;;;;19.60;99.90;;;;;;4977814;28;19926;-80
2022/11/28 11:28:39;;;;;;;;;;;19.70;99.90;;;;;;4977537;28;19930;-79
2022/11/28 11:31:13;;;;;;;;;;;19.60;99.90;;;;;;4977403;28;19933;-80
2022/11/28 11:33:40;;;;;;;;;;;19.60;99.90;;;;;;4977533;28;20313;-80
2022/11/28 11:36:20;;;;;;;;;;;19.60;99.90;;;;;;4977279;28;19930;-79
2022/11/28 11:38:46;;;;;;;;;;;19.60;99.90;;;;;;4976975;28;20477;-79
2022/11/28 11:41:19;;;;;;;;;;;19.60;99.90;;;;;;4975520;28;19930;-78
2022/11/28 11:43:47;;;;;;;;;;;19.70;99.90;;;;;;4975988;28;19926;-78
2022/11/28 11:46:14;;;;;;;;;;;19.70;99.90;;;;;;4975516;28;20337;-79
2022/11/28 11:48:41;;;;;;;;;;;19.70;99.90;;;;;;4976046;28;19926;-79
2022/11/28 11:51:20;;;;;;;;;;;19.70;99.90;;;;;;4975750;28;20298;-79
2022/11/28 11:53:46;;;;;;;;;;;19.70;99.90;;;;;;4976075;28;19933;-79
2022/11/28 11:56:13;;;;;;;;;;;19.70;99.90;;;;;;4975989;28;19930;-79
2022/11/28 11:58:43;;;;;;;;;;;19.70;99.90;;;;;;4975961;28;19926;-78
2022/11/28 12:01:11;;;;;;;;;;;19.70;99.90;;;;;;4975420;28;20318;-78
2022/11/28 12:03:40;;;;;;;;;;;19.70;99.90;;;;;;4974952;28;19926;-78
2022/11/28 12:06:11;;;;;;;;;;;19.70;99.90;;;;;;4975865;28;19930;-77
2022/11/28 12:08:39;;;;;;;;;;;19.70;99.90;;;;;;4975878;28;19926;-78
2022/11/28 12:11:11;;;;;;;;;;;19.70;99.90;;;;;;4975755;28;19933;-78
2022/11/28 12:13:38;;;;;;;;;;;19.70;99.90;;;;;;4975425;28;20301;-78
2022/11/28 12:16:09;;;;;;;;;;;19.70;99.90;;;;;;4975718;28;19926;-78
2022/11/28 12:18:48;;;;;;;;;;;19.80;99.90;;;;;;4976249;28;19926;-78
2022/11/28 12:21:18;;;;;;;;;;;19.80;99.90;;;;;;4975517;28;19935;-77
2022/11/28 12:23:54;;;;;;;;;;;19.80;99.90;;;;;;4975594;28;19926;-77
2022/11/28 12:26:25;;;;;;;;;;;19.80;99.90;;;;;;4975468;28;20390;-78
2022/11/28 12:28:57;;;;;;;;;;;19.80;99.90;;;;;;4975585;28;19933;-77
2022/11/28 12:31:31;;;;;;;;;;;19.90;99.90;;;;;;4975481;28;19933;-78
2022/11/28 12:34:07;;;;;;;;;;;19.90;99.90;;;;;;4976379;28;19926;-78
2022/11/28 12:36:36;;;;;;;;;;;19.90;99.90;;;;;;4976202;28;19936;-79
2022/11/28 12:39:13;;;;;;;;;;;19.90;99.90;;;;;;4975135;28;20420;-78
2022/11/28 12:41:49;;;;;;;;;;;19.90;99.90;;;;;;4975239;28;19973;-78
2022/11/28 12:44:19;;;;;;;;;;;19.90;99.90;;;;;;4975344;28;19926;-78
2022/11/28 12:46:48;;;;;;;;;;;20.00;99.90;;;;;;4975261;28;19933;-78
2022/11/28 12:49:18;;;;;;;;;;;20.00;99.90;;;;;;4975464;28;19926;-78
2022/11/28 12:51:52;;;;;;;;;;;19.80;99.90;;;;;;4975385;28;20016;-79
2022/11/28 12:54:36;;;;;;;;;;;20.00;99.90;;;;;;4975597;28;19933;-79
2022/11/28 12:57:05;;;;;;;;;;;20.00;99.90;;;;;;4975966;28;19926;-79
2022/11/28 12:59:35;;;;;;;;;;;20.10;99.90;;;;;;4975849;28;19933;-79
2022/11/28 13:02:09;;;;;;;;;;;20.10;99.90;;;;;;4975271;28;19933;-79
2022/11/28 13:04:50;;;;;;;;;;;20.10;99.90;;;;;;4975837;28;19934;-79
2022/11/28 13:07:24;;;;;;;;;;;20.10;99.90;;;;;;4958469;28;19937;-79
2022/11/28 13:09:58;;;;;;;;;;;20.00;99.90;;;;;;4975136;28;19926;-78
2022/11/28 13:12:29;;;;;;;;;;;20.10;99.90;;;;;;4975105;28;19926;-78
2022/11/28 13:14:56;;;;;;;;;;;20.10;99.90;;;;;;4978189;28;19926;-77
2022/11/28 13:17:28;;;;;;;;;;;20.20;99.90;;;;;;4978654;28;20271;-78
2022/11/28 13:19:57;;;;;;;;;;;20.00;99.90;;;;;;4978606;28;19933;-78
2022/11/28 13:22:29;;;;;;;;;;;20.00;99.90;;;;;;4984534;28;19933;-76
2022/11/28 13:24:59;;;;;;;;;;;20.00;99.90;;;;;;4981939;28;19926;-77
2022/11/28 13:27:31;;;;;;;;;;;20.00;99.90;;;;;;4978778;28;19926;-77
2022/11/28 13:30:03;;;;;;;;;;;20.00;99.90;;;;;;4979217;28;19927;-76
2022/11/28 13:32:35;;;;;;;;;;;20.00;99.90;;;;;;4978410;28;19926;-76
2022/11/28 13:35:02;;;;;;;;;;;19.90;99.90;;;;;;4978699;28;19926;-76
2022/11/28 13:37:33;;;;;;;;;;;20.00;99.90;;;;;;4978287;28;20390;-76
2022/11/28 13:40:05;;;;;;;;;;;20.00;99.90;;;;;;4978503;28;19926;-77
2022/11/28 13:42:34;;;;;;;;;;;20.00;99.90;;;;;;4978412;28;19926;-76
2022/11/28 13:45:05;;;;;;;;;;;20.00;99.90;;;;;;4978449;28;19941;-76
2022/11/28 13:47:33;;;;;;;;;;;20.00;99.90;;;;;;4978419;28;19926;-76
2022/11/28 13:50:19;;;;;;;;;;;20.00;99.90;;;;;;4978363;28;19926;-76
2022/11/28 13:52:57;;;;;;;;;;;20.10;99.90;;;;;;4978391;28;19926;-76
2022/11/28 13:55:40;;;;;;;;;;;20.10;99.90;;;;;;4978285;28;19926;-76
2022/11/28 13:58:24;;;;;;;;;;;20.10;99.90;;;;;;4978192;28;19930;-76
2022/11/28 14:01:03;;;;;;;;;;;20.20;99.90;;;;;;4978188;28;19927;-76
2022/11/28 14:03:31;;;;;;;;;;;20.20;99.90;;;;;;4978001;28;19926;-75
2022/11/28 14:05:59;;;;;;;;;;;20.20;99.90;;;;;;4977755;28;19930;-75
2022/11/28 14:08:31;;;;;;;;;;;20.30;99.90;;;;;;4978007;28;19927;-76
2022/11/28 14:11:03;;;;;;;;;;;20.30;99.90;;;;;;4977956;28;19953;-76
2022/11/28 14:13:37;;;;;;;;;;;20.30;99.90;;;;;;4978923;28;19926;-76
2022/11/28 14:16:11;;;;;;;;;;;20.20;99.90;;;;;;4977685;28;19926;-76
2022/11/28 14:18:47;;;;;;;;;;;20.40;99.90;;;;;;4977856;28;19930;-75
2022/11/28 14:21:22;;;;;;;;;;;20.30;99.90;;;;;;4977716;28;19930;-75
2022/11/28 14:23:53;;;;;;;;;;;20.40;99.90;;;;;;4977779;28;19930;-76
2022/11/28 14:26:23;;;;;;;;;;;20.40;99.90;;;;;;4976955;28;19926;-76
2022/11/28 14:28:50;;;;;;;;;;;20.40;99.90;;;;;;4977744;28;19926;-76
2022/11/28 14:31:22;;;;;;;;;;;20.50;99.90;;;;;;4977840;28;19932;-78
2022/11/28 14:33:56;;;;;;;;;;;20.50;99.90;;;;;;4979508;28;19926;-76
2022/11/28 14:36:24;;;;;;;;;;;20.40;99.90;;;;;;4977891;28;19926;-76
2022/11/28 14:39:11;;;;;;;;;;;20.40;99.90;;;;;;4977516;28;19933;-76
2022/11/28 14:41:56;;;;;;;;;;;20.40;99.90;;;;;;4977934;28;20270;-76
2022/11/28 14:44:45;;;;;;;;;;;20.40;99.90;;;;;;4977960;28;19926;-75
2022/11/28 14:47:14;;;;;;;;;;;20.40;99.90;;;;;;4977820;28;19949;-75
2022/11/28 14:49:40;;;;;;;;;;;20.40;99.90;;;;;;4977325;28;19933;-76
2022/11/28 14:52:19;;;;;;;;;;;20.40;99.90;;;;;;4977792;28;19926;-75
2022/11/28 14:54:47;;;;;;;;;;;20.30;99.90;;;;;;4979803;28;19927;-75
2022/11/28 14:57:17;;;;;;;;;;;20.40;99.90;;;;;;4978263;28;19929;-76
2022/11/28 14:59:44;;;;;;;;;;;20.30;99.90;;;;;;4978433;28;19926;-76
2022/11/28 15:02:28;;;;;;;;;;;20.30;99.90;;;;;;4979427;28;19926;-76
2022/11/28 15:05:02;;;;;;;;;;;20.30;99.90;;;;;;4965000;28;19926;-76
2022/11/28 15:07:33;;;;;;;;;;;20.20;99.90;;;;;;4977362;28;19930;-77
2022/11/28 15:10:06;;;;;;;;;;;20.20;99.90;;;;;;4976548;28;19927;-76
2022/11/28 15:12:34;;;;;;;;;;;20.20;99.90;;;;;;4976922;28;19926;-76
2022/11/28 15:15:01;;;;;;;;;;;20.20;99.90;;;;;;4977120;28;19926;-77
2022/11/28 15:17:29;;;;;;;;;;;20.30;99.90;;;;;;4978431;28;19926;-76
2022/11/28 15:19:58;;;;;;;;;;;20.30;99.90;;;;;;4979111;28;20390;-75
2022/11/28 15:22:29;;;;;;;;;;;20.30;99.90;;;;;;4976615;28;20397;-75
2022/11/28 15:24:55;;;;;;;;;;;20.40;99.90;;;;;;4980506;28;19933;-77
2022/11/28 15:27:24;;;;;;;;;;;20.40;99.90;;;;;;4979588;28;19926;-76
2022/11/28 15:29:54;;;;;;;;;;;20.40;99.90;;;;;;4977458;28;19927;-76
2022/11/28 15:32:30;;;;;;;;;;;20.40;99.90;;;;;;4979291;28;19926;-77
2022/11/28 15:35:03;;;;;;;;;;;20.50;99.90;;;;;;4989349;28;19933;-76
2022/11/28 15:37:50;;;;;;;;;;;20.40;99.90;;;;;;4988163;28;20313;-76
2022/11/28 15:40:20;;;;;;;;;;;20.40;99.90;;;;;;4984895;28;19933;-75
2022/11/28 15:42:49;;;;;;;;;;;20.40;99.90;;;;;;4984456;28;19926;-76
2022/11/28 15:45:20;;;;;;;;;;;20.40;99.90;;;;;;4980164;28;19932;-76
2022/11/28 15:47:48;;;;;;;;;;;20.30;99.90;;;;;;4983175;28;19926;-76
2022/11/28 15:50:18;;;;;;;;;;;20.40;99.90;;;;;;4984430;28;19976;-76
2022/11/28 15:52:57;;;;;;;;;;;20.30;99.90;;;;;;4987509;28;19981;-76
2022/11/28 15:55:25;;;;;;;60.95;9.50;;;;;;;;;;4978928;28;20486;-76
2022/11/28 15:58:10;;;;;;;24.80;6.85;;;20.70;99.90;;;;;;4974710;28;20419;-71
2022/11/28 16:00:39;;;;;;;20.20;5.45;;;20.70;99.90;;;;;;4975511;28;20313;-72
2022/11/28 16:03:07;;;;;;;20.92;5.78;;;20.30;99.90;;;;;;4975147;28;20227;-72
2022/11/28 16:05:34;;;;;;;22.63;5.45;;;19.80;99.90;;;;;;4975444;28;20207;-72
2022/11/28 16:08:00;;;;;;;21.60;5.90;;;19.60;99.90;;;;;;4975438;28;20262;-72
2022/11/28 16:10:32;;;;;;;19.30;5.45;;;19.40;99.90;;;;;;4975259;28;20249;-72
2022/11/28 16:13:04;;;;;;;23.90;5.60;;;19.40;99.90;;;;;;4975394;28;20183;-72
2022/11/28 16:15:32;;;;;;;16.15;5.57;;;19.40;99.90;;;;;;4975338;28;20187;-73
2022/11/28 16:17:58;;;;;;;28.92;5.55;;;19.40;99.90;;;;;;4975249;28;20250;-73
2022/11/28 16:20:27;;;;;;;20.05;5.50;;;19.40;99.90;;;;;;4974834;28;20239;-72
2022/11/28 16:22:59;;;;;;;15.23;4.13;;;19.30;99.90;;;;;;4975121;28;20249;-72
2022/11/28 16:25:27;;;;;;;20.05;5.03;;;19.30;99.90;;;;;;4974889;28;20697;-72
2022/11/28 16:27:56;;;;;;;16.83;5.05;;;19.30;99.90;;;;;;4975101;28;20199;-72
2022/11/28 16:30:35;;;;;;;23.23;5.05;;;19.20;99.90;;;;;;4975013;28;20314;-72
2022/11/28 16:33:04;;;;;;;18.98;4.82;;;19.20;99.90;;;;;;4974774;28;20653;-72
2022/11/28 16:35:36;;;;;;;11.88;4.78;;;19.10;99.90;;;;;;4975005;28;20569;-72
2022/11/28 16:38:05;;;;;;;21.02;5.85;;;19.30;99.90;;;;;;4974987;28;20282;-73
2022/11/28 16:40:32;;;;;;;28.98;5.50;;;19.10;99.90;;;;;;4974860;28;20222;-73
2022/11/28 16:43:01;;;;;;;14.57;5.15;;;19.10;99.90;;;;;;4974837;28;20227;-72
2022/11/28 16:45:33;;;;;;;23.73;5.45;;;19.10;99.90;;;;;;4978456;28;20199;-73
2022/11/28 16:48:08;;;;;;;24.58;5.70;;;19.10;99.90;;;;;;4979962;28;20195;-74
2022/11/28 16:50:36;;;;;;;18.20;5.00;;;19.10;99.90;;;;;;4980216;28;20227;-73
2022/11/28 16:53:05;;;;;;;19.90;5.30;;;19.10;99.90;;;;;;4980591;28;20226;-73
2022/11/28 16:55:40;;;;;;;15.93;4.85;;;19.10;99.90;;;;;;4980017;28;20225;-75
2022/11/28 16:58:14;;;;;;;17.75;4.82;;;19.10;99.90;;;;;;4980806;28;20740;-75
2022/11/28 17:00:47;;;;;;;22.27;5.55;;;19.10;99.90;;;;;;4979645;28;20227;-75
2022/11/28 17:03:48;;;;;;;15.38;5.13;;;19.10;99.90;;;;;;4979659;28;20256;-76
2022/11/28 17:06:27;;;;;;;17.85;4.63;;;19.20;99.90;;;;;;4969922;28;20202;-75
2022/11/28 17:08:55;;;;;;;17.80;5.05;;;19.20;99.90;;;;;;4980900;28;20194;-75
2022/11/28 17:11:26;;;;;;;15.30;5.10;;;19.30;99.90;;;;;;4978284;28;20230;-74
2022/11/28 17:13:53;;;;;;;23.20;5.47;;;19.30;99.90;;;;;;4974348;28;20535;-75
2022/11/28 17:16:23;;;;;;;24.75;5.85;;;19.30;99.90;;;;;;4974269;28;20206;-75
2022/11/28 17:18:50;;;;;;;15.75;4.88;;;19.40;99.90;;;;;;4974286;28;20678;-74
2022/11/28 17:21:20;;;;;;;15.35;4.57;;;19.40;99.90;;;;;;4974199;28;20227;-74
2022/11/28 17:23:46;;;;;;;15.73;5.38;;;19.30;99.90;;;;;;4974466;28;20230;-74
2022/11/28 17:26:13;;;;;;;12.25;4.53;;;19.50;99.90;;;;;;4974471;28;20206;-74
2022/11/28 17:28:40;;;;;;;19.35;4.88;;;19.40;99.90;;;;;;4974474;28;20234;-74
2022/11/28 17:31:08;;;;;;;17.45;5.82;;;19.40;99.90;;;;;;4974359;28;20223;-73
2022/11/28 17:33:36;;;;;;;17.20;5.10;;;19.40;99.90;;;;;;4974439;28;20210;-73
2022/11/28 17:36:03;;;;;;;15.35;4.40;;;19.40;99.90;;;;;;4974145;28;20550;-73
2022/11/28 17:38:32;;;;;;;21.33;4.88;;;19.40;99.90;;;;;;4974088;28;20693;-73
2022/11/28 17:40:59;;;;;;;15.13;4.85;;;19.30;99.90;;;;;;4974626;28;20226;-73
2022/11/28 17:43:26;;;;;;;21.90;4.78;;;19.30;99.90;;;;;;4973965;28;20690;-73
2022/11/28 17:45:53;;;;;;;15.48;5.45;;;19.30;99.90;;;;;;4974372;28;20214;-73
2022/11/28 17:48:19;;;;;;;25.85;5.97;;;19.30;99.90;;;;;;4974328;28;20211;-75
2022/11/28 17:50:49;;;;;;;25.25;5.57;;;19.40;99.90;;;;;;4973935;28;20576;-73
2022/11/28 17:53:19;;;;;;;19.10;4.85;;;19.50;99.90;;;;;;4974264;28;20195;-75
2022/11/28 17:55:47;;;;;;;25.88;5.75;;;19.50;99.90;;;;;;4974225;28;20203;-75
2022/11/28 17:58:16;;;;;;;15.60;5.43;;;19.50;99.90;;;;;;4974204;28;20222;-75
2022/11/28 18:00:44;;;;;;;14.07;5.07;;;19.60;99.90;;;;;;4975613;28;20258;-75
2022/11/28 18:03:10;;;;;;;16.25;4.38;;;19.60;99.90;;;;;;4977375;28;20238;-75
2022/11/28 18:05:39;;;;;;;19.55;5.07;;;19.60;99.90;;;;;;4977698;28;20366;-75
2022/11/28 18:08:07;;;;;;;20.27;4.68;;;19.50;99.90;;;;;;4977589;28;20214;-75
2022/11/28 18:10:34;;;;;;;20.13;4.57;;;19.50;99.90;;;;;;4977501;28;20223;-75
2022/11/28 18:13:01;;;;;;;20.90;5.18;;;19.50;99.90;;;;;;4977329;28;20643;-74
2022/11/28 18:15:28;;;;;;;30.38;5.57;;;19.50;99.90;;;;;;4977475;28;20254;-74
2022/11/28 18:17:55;;;;;;;22.27;4.78;;;19.40;99.90;;;;;;4977457;28;20203;-74
2022/11/28 18:20:22;;;;;;;34.15;6.25;;;19.40;99.90;;;;;;4977345;28;20227;-73
2022/11/28 18:22:48;;;;;;;23.92;5.25;;;19.40;99.90;;;;;;4978701;28;20274;-73
2022/11/28 18:25:17;;;;;;;20.48;4.88;;;19.40;99.90;;;;;;4977373;28;20207;-73
2022/11/28 18:27:43;;;;;;;18.85;4.88;;;19.40;99.90;;;;;;4978451;28;20199;-73
2022/11/28 18:30:12;;;;;;;26.67;5.70;;;19.40;99.90;;;;;;4978659;28;20730;-73
2022/11/28 18:32:39;;;;;;;26.83;5.68;;;19.30;99.90;;;;;;4977546;28;20239;-73
2022/11/28 18:35:07;;;;;;;20.60;4.93;;;19.30;99.90;;;;;;4976784;28;20666;-73
2022/11/28 18:37:33;;;;;;;34.58;4.97;;;19.30;99.90;;;;;;4977005;28;20202;-73
2022/11/28 18:40:00;;;;;;;24.05;5.28;;;19.40;99.90;;;;;;4976921;28;20422;-73
2022/11/28 18:42:28;;;;;;;23.27;4.75;;;19.40;99.90;;;;;;4976904;28;20213;-74
2022/11/28 18:44:55;;;;;;;18.60;3.83;;;19.40;99.90;;;;;;4980552;28;20667;-72
2022/11/28 18:47:25;;;;;;;18.60;3.15;;;19.40;99.90;;;;;;4982778;28;20210;-72
2022/11/28 18:49:52;;;;;;;13.90;2.65;;;19.30;99.90;;;;;;4983004;28;20227;-73
2022/11/28 18:52:19;;;;;;;9.88;2.75;;;19.30;99.90;;;;;;4982887;28;20191;-74
2022/11/28 18:54:47;;;;;;;15.52;2.10;;;19.20;99.90;;;;;;4982597;28;20202;-71
2022/11/28 18:57:14;;;;;;;10.15;2.30;;;19.20;99.90;;;;;;4982758;28;20206;-71
2022/11/28 18:59:43;;;;;;;6.82;1.90;;;19.20;99.90;;;;;;4981922;28;20206;-71
2022/11/28 19:02:12;;;;;;;3.17;1.77;;;19.20;99.90;;;;;;4979622;28;20547;-71
2022/11/28 19:04:39;;;;;;;5.32;1.67;;;19.10;99.90;;;;;;4976265;28;20239;-71